sensor_id;sensor_type;location;lat;lon;timestamp;P1;durP1;ratioP1;P2;durP2;ratioP2
2177;SDS011;1095;50.992;6.798;2023-04-10T00:01:15;18.05;;;13.18;;
2177;SDS011;1095;50.992;6.798;2023-04-10T00:03:42;15.88;;;12.45;;
2177;SDS011;1095;50.992;6.798;2023-04-10T00:06:10;16.65;;;12.13;;
2177;SDS011;1095;50.992;6.798;2023-04-10T00:08:36;17.42;;;12.25;;
2177;SDS011;1095;50.992;6.798;2023-04-10T00:11:03;15.45;;;12.30;;
2177;SDS011;1095;50.992;6.798;2023-04-10T00:13:33;17.70;;;12.90;;
2177;SDS011;1095;50.992;6.798;2023-04-10T00:16:00;17.60;;;13.68;;
2177;SDS011;1095;50.992;6.798;2023-04-10T00:18:26;16.90;;;12.65;;
2177;SDS011;1095;50.992;6.798;2023-04-10T00:20:53;18.23;;;13.68;;
2177;SDS011;1095;50.992;6.798;2023-04-10T00:23:21;20.83;;;12.98;;
2177;SDS011;1095;50.992;6.798;2023-04-10T00:25:48;17.20;;;12.75;;
2177;SDS011;1095;50.992;6.798;2023-04-10T00:28:14;19.20;;;13.85;;
2177;SDS011;1095;50.992;6.798;2023-04-10T00:30:41;17.38;;;13.23;;
2177;SDS011;1095;50.992;6.798;2023-04-10T00:33:08;17.60;;;13.20;;
2177;SDS011;1095;50.992;6.798;2023-04-10T00:35:36;17.30;;;12.73;;
2177;SDS011;1095;50.992;6.798;2023-04-10T00:38:03;18.60;;;13.63;;
2177;SDS011;1095;50.992;6.798;2023-04-10T00:40:31;18.42;;;13.35;;
2177;SDS011;1095;50.992;6.798;2023-04-10T00:42:57;17.27;;;12.68;;
2177;SDS011;1095;50.992;6.798;2023-04-10T00:45:24;18.58;;;13.30;;
2177;SDS011;1095;50.992;6.798;2023-04-10T00:47:51;16.77;;;13.00;;
2177;SDS011;1095;50.992;6.798;2023-04-10T00:50:18;16.75;;;13.70;;
2177;SDS011;1095;50.992;6.798;2023-04-10T00:52:46;17.95;;;13.00;;
2177;SDS011;1095;50.992;6.798;2023-04-10T00:55:13;20.88;;;13.00;;
2177;SDS011;1095;50.992;6.798;2023-04-10T00:57:43;17.48;;;12.90;;
2177;SDS011;1095;50.992;6.798;2023-04-10T01:00:11;17.35;;;13.40;;
2177;SDS011;1095;50.992;6.798;2023-04-10T01:02:38;19.25;;;13.50;;
2177;SDS011;1095;50.992;6.798;2023-04-10T01:05:05;19.92;;;13.52;;
2177;SDS011;1095;50.992;6.798;2023-04-10T01:07:34;17.10;;;12.93;;
2177;SDS011;1095;50.992;6.798;2023-04-10T01:10:11;18.75;;;13.25;;
2177;SDS011;1095;50.992;6.798;2023-04-10T01:12:47;19.45;;;13.52;;
2177;SDS011;1095;50.992;6.798;2023-04-10T01:15:21;16.67;;;13.15;;
2177;SDS011;1095;50.992;6.798;2023-04-10T01:17:51;18.42;;;13.88;;
2177;SDS011;1095;50.992;6.798;2023-04-10T01:20:26;19.75;;;14.15;;
2177;SDS011;1095;50.992;6.798;2023-04-10T01:26:07;19.05;;;13.38;;
2177;SDS011;1095;50.992;6.798;2023-04-10T01:28:54;19.13;;;14.43;;
2177;SDS011;1095;50.992;6.798;2023-04-10T01:31:26;21.30;;;14.05;;
2177;SDS011;1095;50.992;6.798;2023-04-10T01:34:03;21.52;;;14.30;;
2177;SDS011;1095;50.992;6.798;2023-04-10T01:36:35;19.80;;;13.70;;
2177;SDS011;1095;50.992;6.798;2023-04-10T01:39:06;20.08;;;14.43;;
2177;SDS011;1095;50.992;6.798;2023-04-10T01:41:34;19.80;;;14.30;;
2177;SDS011;1095;50.992;6.798;2023-04-10T01:44:04;21.25;;;15.02;;
2177;SDS011;1095;50.992;6.798;2023-04-10T01:46:32;21.83;;;14.20;;
2177;SDS011;1095;50.992;6.798;2023-04-10T01:48:59;19.83;;;14.50;;
2177;SDS011;1095;50.992;6.798;2023-04-10T01:51:28;18.90;;;13.95;;
2177;SDS011;1095;50.992;6.798;2023-04-10T01:54:06;18.60;;;13.73;;
2177;SDS011;1095;50.992;6.798;2023-04-10T01:56:34;20.08;;;14.38;;
2177;SDS011;1095;50.992;6.798;2023-04-10T01:59:01;20.00;;;14.40;;
2177;SDS011;1095;50.992;6.798;2023-04-10T02:01:31;19.95;;;14.40;;
2177;SDS011;1095;50.992;6.798;2023-04-10T02:03:57;18.42;;;14.25;;
2177;SDS011;1095;50.992;6.798;2023-04-10T02:06:26;20.70;;;14.02;;
2177;SDS011;1095;50.992;6.798;2023-04-10T02:09:02;22.83;;;15.15;;
2177;SDS011;1095;50.992;6.798;2023-04-10T02:11:37;22.13;;;14.88;;
2177;SDS011;1095;50.992;6.798;2023-04-10T02:14:09;17.75;;;13.82;;
2177;SDS011;1095;50.992;6.798;2023-04-10T02:16:43;19.08;;;14.20;;
2177;SDS011;1095;50.992;6.798;2023-04-10T02:19:13;23.50;;;16.42;;
2177;SDS011;1095;50.992;6.798;2023-04-10T02:21:41;20.10;;;14.70;;
2177;SDS011;1095;50.992;6.798;2023-04-10T02:24:08;21.30;;;14.15;;
2177;SDS011;1095;50.992;6.798;2023-04-10T02:26:43;19.35;;;14.48;;
2177;SDS011;1095;50.992;6.798;2023-04-10T02:29:11;20.55;;;15.32;;
2177;SDS011;1095;50.992;6.798;2023-04-10T02:31:37;20.23;;;14.80;;
2177;SDS011;1095;50.992;6.798;2023-04-10T02:34:06;20.95;;;15.70;;
2177;SDS011;1095;50.992;6.798;2023-04-10T02:36:33;21.65;;;14.85;;
2177;SDS011;1095;50.992;6.798;2023-04-10T02:39:00;20.45;;;14.55;;
2177;SDS011;1095;50.992;6.798;2023-04-10T02:41:27;19.58;;;14.88;;
2177;SDS011;1095;50.992;6.798;2023-04-10T02:43:54;19.17;;;14.65;;
2177;SDS011;1095;50.992;6.798;2023-04-10T02:46:20;21.40;;;14.98;;
2177;SDS011;1095;50.992;6.798;2023-04-10T02:48:47;20.33;;;14.55;;
2177;SDS011;1095;50.992;6.798;2023-04-10T02:51:16;20.83;;;15.60;;
2177;SDS011;1095;50.992;6.798;2023-04-10T02:53:43;21.20;;;15.73;;
2177;SDS011;1095;50.992;6.798;2023-04-10T02:56:10;19.13;;;14.20;;
2177;SDS011;1095;50.992;6.798;2023-04-10T02:58:36;21.02;;;15.20;;
2177;SDS011;1095;50.992;6.798;2023-04-10T03:01:04;21.08;;;15.35;;
2177;SDS011;1095;50.992;6.798;2023-04-10T03:03:31;24.00;;;16.20;;
2177;SDS011;1095;50.992;6.798;2023-04-10T03:05:58;21.10;;;15.88;;
2177;SDS011;1095;50.992;6.798;2023-04-10T03:08:26;21.85;;;15.60;;
2177;SDS011;1095;50.992;6.798;2023-04-10T03:10:54;22.50;;;16.10;;
2177;SDS011;1095;50.992;6.798;2023-04-10T03:13:21;20.88;;;14.65;;
2177;SDS011;1095;50.992;6.798;2023-04-10T03:15:48;21.73;;;15.48;;
2177;SDS011;1095;50.992;6.798;2023-04-10T03:18:15;23.02;;;15.30;;
2177;SDS011;1095;50.992;6.798;2023-04-10T03:20:41;22.45;;;15.80;;
2177;SDS011;1095;50.992;6.798;2023-04-10T03:23:08;21.77;;;15.70;;
2177;SDS011;1095;50.992;6.798;2023-04-10T03:25:36;21.83;;;15.57;;
2177;SDS011;1095;50.992;6.798;2023-04-10T03:28:03;21.42;;;16.15;;
2177;SDS011;1095;50.992;6.798;2023-04-10T03:30:29;21.92;;;15.48;;
2177;SDS011;1095;50.992;6.798;2023-04-10T03:32:56;24.33;;;16.35;;
2177;SDS011;1095;50.992;6.798;2023-04-10T03:35:23;21.75;;;14.93;;
2177;SDS011;1095;50.992;6.798;2023-04-10T03:37:49;23.00;;;16.25;;
2177;SDS011;1095;50.992;6.798;2023-04-10T03:40:16;22.05;;;15.10;;
2177;SDS011;1095;50.992;6.798;2023-04-10T03:42:44;20.52;;;15.63;;
2177;SDS011;1095;50.992;6.798;2023-04-10T03:45:11;23.58;;;15.73;;
2177;SDS011;1095;50.992;6.798;2023-04-10T03:47:38;22.08;;;15.73;;
2177;SDS011;1095;50.992;6.798;2023-04-10T03:50:05;21.63;;;15.85;;
2177;SDS011;1095;50.992;6.798;2023-04-10T03:52:32;22.17;;;15.95;;
2177;SDS011;1095;50.992;6.798;2023-04-10T03:54:58;20.63;;;15.38;;
2177;SDS011;1095;50.992;6.798;2023-04-10T03:57:25;22.25;;;16.02;;
2177;SDS011;1095;50.992;6.798;2023-04-10T03:59:53;21.17;;;15.88;;
2177;SDS011;1095;50.992;6.798;2023-04-10T04:02:21;21.35;;;15.27;;
2177;SDS011;1095;50.992;6.798;2023-04-10T04:04:48;23.40;;;15.68;;
2177;SDS011;1095;50.992;6.798;2023-04-10T04:07:14;21.70;;;15.07;;
2177;SDS011;1095;50.992;6.798;2023-04-10T04:09:41;24.55;;;15.90;;
2177;SDS011;1095;50.992;6.798;2023-04-10T04:12:08;23.45;;;15.27;;
2177;SDS011;1095;50.992;6.798;2023-04-10T04:14:34;22.13;;;15.57;;
2177;SDS011;1095;50.992;6.798;2023-04-10T04:17:02;21.58;;;15.50;;
2177;SDS011;1095;50.992;6.798;2023-04-10T04:19:29;22.67;;;15.05;;
2177;SDS011;1095;50.992;6.798;2023-04-10T04:21:55;20.50;;;15.27;;
2177;SDS011;1095;50.992;6.798;2023-04-10T04:24:24;22.38;;;15.85;;
2177;SDS011;1095;50.992;6.798;2023-04-10T04:26:50;23.08;;;16.45;;
2177;SDS011;1095;50.992;6.798;2023-04-10T04:29:17;25.00;;;16.60;;
2177;SDS011;1095;50.992;6.798;2023-04-10T04:31:44;22.42;;;15.38;;
2177;SDS011;1095;50.992;6.798;2023-04-10T04:34:13;23.00;;;16.20;;
2177;SDS011;1095;50.992;6.798;2023-04-10T04:36:40;21.23;;;15.52;;
2177;SDS011;1095;50.992;6.798;2023-04-10T04:39:07;20.20;;;15.25;;
2177;SDS011;1095;50.992;6.798;2023-04-10T04:41:33;22.65;;;15.95;;
2177;SDS011;1095;50.992;6.798;2023-04-10T04:44:00;22.50;;;15.65;;
2177;SDS011;1095;50.992;6.798;2023-04-10T04:46:27;22.10;;;15.80;;
2177;SDS011;1095;50.992;6.798;2023-04-10T04:48:54;21.15;;;15.32;;
2177;SDS011;1095;50.992;6.798;2023-04-10T04:51:22;20.92;;;14.90;;
2177;SDS011;1095;50.992;6.798;2023-04-10T04:53:48;21.20;;;15.10;;
2177;SDS011;1095;50.992;6.798;2023-04-10T04:56:15;20.70;;;14.80;;
2177;SDS011;1095;50.992;6.798;2023-04-10T04:58:42;20.85;;;15.20;;
2177;SDS011;1095;50.992;6.798;2023-04-10T05:01:08;19.98;;;14.18;;
2177;SDS011;1095;50.992;6.798;2023-04-10T05:03:37;20.95;;;15.15;;
2177;SDS011;1095;50.992;6.798;2023-04-10T05:06:04;20.58;;;15.40;;
2177;SDS011;1095;50.992;6.798;2023-04-10T05:08:32;20.33;;;14.68;;
2177;SDS011;1095;50.992;6.798;2023-04-10T05:10:59;19.70;;;14.45;;
2177;SDS011;1095;50.992;6.798;2023-04-10T05:13:25;21.98;;;14.70;;
2177;SDS011;1095;50.992;6.798;2023-04-10T05:15:52;20.27;;;14.85;;
2177;SDS011;1095;50.992;6.798;2023-04-10T05:18:18;20.98;;;15.13;;
2177;SDS011;1095;50.992;6.798;2023-04-10T05:20:47;20.15;;;14.45;;
2177;SDS011;1095;50.992;6.798;2023-04-10T05:23:14;19.42;;;14.27;;
2177;SDS011;1095;50.992;6.798;2023-04-10T05:25:42;21.35;;;14.75;;
2177;SDS011;1095;50.992;6.798;2023-04-10T05:28:09;19.92;;;13.70;;
2177;SDS011;1095;50.992;6.798;2023-04-10T05:30:35;19.27;;;14.25;;
2177;SDS011;1095;50.992;6.798;2023-04-10T05:33:02;22.58;;;14.45;;
2177;SDS011;1095;50.992;6.798;2023-04-10T05:35:29;20.77;;;14.63;;
2177;SDS011;1095;50.992;6.798;2023-04-10T05:37:56;23.23;;;15.13;;
2177;SDS011;1095;50.992;6.798;2023-04-10T05:40:23;19.98;;;15.00;;
2177;SDS011;1095;50.992;6.798;2023-04-10T05:42:51;20.52;;;13.68;;
2177;SDS011;1095;50.992;6.798;2023-04-10T05:45:18;20.92;;;14.50;;
2177;SDS011;1095;50.992;6.798;2023-04-10T05:47:45;18.95;;;13.88;;
2177;SDS011;1095;50.992;6.798;2023-04-10T05:50:11;20.73;;;13.77;;
2177;SDS011;1095;50.992;6.798;2023-04-10T05:52:38;17.95;;;13.68;;
2177;SDS011;1095;50.992;6.798;2023-04-10T05:55:05;17.92;;;13.32;;
2177;SDS011;1095;50.992;6.798;2023-04-10T05:57:32;19.98;;;13.13;;
2177;SDS011;1095;50.992;6.798;2023-04-10T06:00:00;17.95;;;13.55;;
2177;SDS011;1095;50.992;6.798;2023-04-10T06:02:27;18.38;;;13.90;;
2177;SDS011;1095;50.992;6.798;2023-04-10T06:04:54;18.90;;;13.77;;
2177;SDS011;1095;50.992;6.798;2023-04-10T06:07:21;19.05;;;13.52;;
2177;SDS011;1095;50.992;6.798;2023-04-10T06:09:47;19.88;;;12.80;;
2177;SDS011;1095;50.992;6.798;2023-04-10T06:12:14;17.75;;;13.55;;
2177;SDS011;1095;50.992;6.798;2023-04-10T06:14:41;18.25;;;12.32;;
2177;SDS011;1095;50.992;6.798;2023-04-10T06:17:09;17.40;;;12.57;;
2177;SDS011;1095;50.992;6.798;2023-04-10T06:19:35;18.95;;;12.23;;
2177;SDS011;1095;50.992;6.798;2023-04-10T06:22:02;19.85;;;12.80;;
2177;SDS011;1095;50.992;6.798;2023-04-10T06:24:28;15.43;;;11.88;;
2177;SDS011;1095;50.992;6.798;2023-04-10T06:26:56;15.10;;;11.93;;
2177;SDS011;1095;50.992;6.798;2023-04-10T06:29:22;15.02;;;11.45;;
2177;SDS011;1095;50.992;6.798;2023-04-10T06:31:49;13.93;;;11.18;;
2177;SDS011;1095;50.992;6.798;2023-04-10T06:34:17;16.08;;;12.32;;
2177;SDS011;1095;50.992;6.798;2023-04-10T06:36:43;13.57;;;11.63;;
2177;SDS011;1095;50.992;6.798;2023-04-10T06:39:10;14.30;;;11.60;;
2177;SDS011;1095;50.992;6.798;2023-04-10T06:41:37;13.27;;;11.30;;
2177;SDS011;1095;50.992;6.798;2023-04-10T06:44:03;16.25;;;11.98;;
2177;SDS011;1095;50.992;6.798;2023-04-10T06:46:30;15.65;;;11.85;;
2177;SDS011;1095;50.992;6.798;2023-04-10T06:48:57;14.45;;;11.82;;
2177;SDS011;1095;50.992;6.798;2023-04-10T06:51:25;15.48;;;11.80;;
2177;SDS011;1095;50.992;6.798;2023-04-10T06:53:51;14.55;;;11.63;;
2177;SDS011;1095;50.992;6.798;2023-04-10T06:56:18;16.35;;;11.80;;
2177;SDS011;1095;50.992;6.798;2023-04-10T06:58:45;15.77;;;11.95;;
2177;SDS011;1095;50.992;6.798;2023-04-10T07:01:11;13.63;;;11.43;;
2177;SDS011;1095;50.992;6.798;2023-04-10T07:03:41;14.05;;;11.70;;
2177;SDS011;1095;50.992;6.798;2023-04-10T07:06:08;14.57;;;11.32;;
2177;SDS011;1095;50.992;6.798;2023-04-10T07:08:37;14.00;;;11.27;;
2177;SDS011;1095;50.992;6.798;2023-04-10T07:11:03;13.13;;;11.02;;
2177;SDS011;1095;50.992;6.798;2023-04-10T07:13:30;13.52;;;11.35;;
2177;SDS011;1095;50.992;6.798;2023-04-10T07:15:57;16.98;;;11.88;;
2177;SDS011;1095;50.992;6.798;2023-04-10T07:18:23;13.82;;;11.20;;
2177;SDS011;1095;50.992;6.798;2023-04-10T07:20:50;15.25;;;10.98;;
2177;SDS011;1095;50.992;6.798;2023-04-10T07:23:18;14.02;;;11.30;;
2177;SDS011;1095;50.992;6.798;2023-04-10T07:25:46;13.52;;;11.23;;
2177;SDS011;1095;50.992;6.798;2023-04-10T07:28:12;12.20;;;10.48;;
2177;SDS011;1095;50.992;6.798;2023-04-10T07:30:39;13.35;;;11.13;;
2177;SDS011;1095;50.992;6.798;2023-04-10T07:33:06;14.07;;;11.85;;
2177;SDS011;1095;50.992;6.798;2023-04-10T07:35:32;14.80;;;11.10;;
2177;SDS011;1095;50.992;6.798;2023-04-10T07:37:59;14.88;;;11.60;;
2177;SDS011;1095;50.992;6.798;2023-04-10T07:40:26;13.75;;;11.05;;
2177;SDS011;1095;50.992;6.798;2023-04-10T07:42:54;13.02;;;10.48;;
2177;SDS011;1095;50.992;6.798;2023-04-10T07:45:21;13.90;;;11.45;;
2177;SDS011;1095;50.992;6.798;2023-04-10T07:47:47;13.02;;;10.70;;
2177;SDS011;1095;50.992;6.798;2023-04-10T07:50:14;13.07;;;10.05;;
2177;SDS011;1095;50.992;6.798;2023-04-10T07:52:41;13.35;;;10.27;;
2177;SDS011;1095;50.992;6.798;2023-04-10T07:55:08;13.05;;;10.30;;
2177;SDS011;1095;50.992;6.798;2023-04-10T07:57:35;12.75;;;9.90;;
2177;SDS011;1095;50.992;6.798;2023-04-10T08:00:03;14.40;;;10.32;;
2177;SDS011;1095;50.992;6.798;2023-04-10T08:02:30;12.55;;;9.98;;
2177;SDS011;1095;50.992;6.798;2023-04-10T08:04:57;13.80;;;9.68;;
2177;SDS011;1095;50.992;6.798;2023-04-10T08:07:23;13.00;;;10.43;;
2177;SDS011;1095;50.992;6.798;2023-04-10T08:09:50;13.40;;;10.30;;
2177;SDS011;1095;50.992;6.798;2023-04-10T08:12:17;13.77;;;10.32;;
2177;SDS011;1095;50.992;6.798;2023-04-10T08:14:50;13.38;;;9.93;;
2177;SDS011;1095;50.992;6.798;2023-04-10T08:17:18;12.45;;;10.15;;
2177;SDS011;1095;50.992;6.798;2023-04-10T08:19:44;13.82;;;10.13;;
2177;SDS011;1095;50.992;6.798;2023-04-10T08:22:11;11.40;;;9.38;;
2177;SDS011;1095;50.992;6.798;2023-04-10T08:24:38;13.52;;;9.93;;
2177;SDS011;1095;50.992;6.798;2023-04-10T08:27:04;10.98;;;9.15;;
2177;SDS011;1095;50.992;6.798;2023-04-10T08:29:31;10.82;;;9.05;;
2177;SDS011;1095;50.992;6.798;2023-04-10T08:31:57;11.55;;;9.55;;
2177;SDS011;1095;50.992;6.798;2023-04-10T08:34:26;12.40;;;9.18;;
2177;SDS011;1095;50.992;6.798;2023-04-10T08:36:53;12.98;;;9.80;;
2177;SDS011;1095;50.992;6.798;2023-04-10T08:39:19;12.98;;;8.93;;
2177;SDS011;1095;50.992;6.798;2023-04-10T08:41:46;10.65;;;8.98;;
2177;SDS011;1095;50.992;6.798;2023-04-10T08:44:13;10.90;;;9.02;;
2177;SDS011;1095;50.992;6.798;2023-04-10T08:46:40;10.70;;;8.68;;
2177;SDS011;1095;50.992;6.798;2023-04-10T08:49:09;11.15;;;8.82;;
2177;SDS011;1095;50.992;6.798;2023-04-10T08:51:38;12.55;;;7.97;;
2177;SDS011;1095;50.992;6.798;2023-04-10T08:54:12;11.55;;;8.32;;
2177;SDS011;1095;50.992;6.798;2023-04-10T08:56:44;9.77;;;8.57;;
2177;SDS011;1095;50.992;6.798;2023-04-10T08:59:15;11.00;;;8.02;;
2177;SDS011;1095;50.992;6.798;2023-04-10T09:01:42;9.52;;;7.95;;
2177;SDS011;1095;50.992;6.798;2023-04-10T09:04:09;9.65;;;7.70;;
2177;SDS011;1095;50.992;6.798;2023-04-10T09:06:38;9.40;;;7.78;;
2177;SDS011;1095;50.992;6.798;2023-04-10T09:09:05;9.43;;;7.70;;
2177;SDS011;1095;50.992;6.798;2023-04-10T09:14:25;8.77;;;7.40;;
2177;SDS011;1095;50.992;6.798;2023-04-10T09:16:52;9.13;;;7.45;;
2177;SDS011;1095;50.992;6.798;2023-04-10T09:19:28;8.60;;;7.30;;
2177;SDS011;1095;50.992;6.798;2023-04-10T09:21:57;8.70;;;7.28;;
2177;SDS011;1095;50.992;6.798;2023-04-10T09:24:23;8.95;;;7.30;;
2177;SDS011;1095;50.992;6.798;2023-04-10T09:26:50;9.98;;;7.80;;
2177;SDS011;1095;50.992;6.798;2023-04-10T09:29:17;9.85;;;7.70;;
2177;SDS011;1095;50.992;6.798;2023-04-10T09:31:44;9.68;;;7.35;;
2177;SDS011;1095;50.992;6.798;2023-04-10T09:34:12;8.80;;;7.55;;
2177;SDS011;1095;50.992;6.798;2023-04-10T09:36:40;9.48;;;6.82;;
2177;SDS011;1095;50.992;6.798;2023-04-10T09:39:09;9.60;;;7.28;;
2177;SDS011;1095;50.992;6.798;2023-04-10T09:41:46;10.63;;;7.30;;
2177;SDS011;1095;50.992;6.798;2023-04-10T09:44:15;8.55;;;7.30;;
2177;SDS011;1095;50.992;6.798;2023-04-10T09:46:43;9.38;;;7.22;;
2177;SDS011;1095;50.992;6.798;2023-04-10T09:49:10;8.38;;;7.00;;
2177;SDS011;1095;50.992;6.798;2023-04-10T09:51:39;9.13;;;7.35;;
2177;SDS011;1095;50.992;6.798;2023-04-10T09:54:08;9.18;;;7.38;;
2177;SDS011;1095;50.992;6.798;2023-04-10T09:56:37;9.05;;;7.28;;
2177;SDS011;1095;50.992;6.798;2023-04-10T09:59:05;8.00;;;6.85;;
2177;SDS011;1095;50.992;6.798;2023-04-10T10:01:32;9.85;;;7.18;;
2177;SDS011;1095;50.992;6.798;2023-04-10T10:04:00;9.13;;;7.28;;
2177;SDS011;1095;50.992;6.798;2023-04-10T10:06:28;8.40;;;7.07;;
2177;SDS011;1095;50.992;6.798;2023-04-10T10:08:57;8.27;;;6.72;;
2177;SDS011;1095;50.992;6.798;2023-04-10T10:11:29;8.25;;;7.18;;
2177;SDS011;1095;50.992;6.798;2023-04-10T10:14:00;8.18;;;6.72;;
2177;SDS011;1095;50.992;6.798;2023-04-10T10:16:31;8.50;;;6.90;;
2177;SDS011;1095;50.992;6.798;2023-04-10T10:19:04;8.30;;;7.03;;
2177;SDS011;1095;50.992;6.798;2023-04-10T10:21:35;7.80;;;6.90;;
2177;SDS011;1095;50.992;6.798;2023-04-10T10:24:06;8.00;;;6.65;;
2177;SDS011;1095;50.992;6.798;2023-04-10T10:26:36;7.97;;;6.80;;
2177;SDS011;1095;50.992;6.798;2023-04-10T10:29:05;8.45;;;6.70;;
2177;SDS011;1095;50.992;6.798;2023-04-10T10:31:35;7.95;;;7.15;;
2177;SDS011;1095;50.992;6.798;2023-04-10T10:34:02;8.07;;;6.90;;
2177;SDS011;1095;50.992;6.798;2023-04-10T10:36:31;7.75;;;6.53;;
2177;SDS011;1095;50.992;6.798;2023-04-10T10:39:00;8.98;;;6.90;;
2177;SDS011;1095;50.992;6.798;2023-04-10T10:41:37;7.78;;;6.35;;
2177;SDS011;1095;50.992;6.798;2023-04-10T10:44:10;7.53;;;6.40;;
2177;SDS011;1095;50.992;6.798;2023-04-10T10:46:42;8.88;;;6.90;;
2177;SDS011;1095;50.992;6.798;2023-04-10T10:49:14;8.57;;;6.57;;
2177;SDS011;1095;50.992;6.798;2023-04-10T10:51:44;8.10;;;6.72;;
2177;SDS011;1095;50.992;6.798;2023-04-10T10:54:28;7.85;;;6.78;;
2177;SDS011;1095;50.992;6.798;2023-04-10T10:56:57;7.63;;;6.35;;
2177;SDS011;1095;50.992;6.798;2023-04-10T10:59:52;8.15;;;7.00;;
2177;SDS011;1095;50.992;6.798;2023-04-10T11:02:20;7.97;;;6.20;;
2177;SDS011;1095;50.992;6.798;2023-04-10T11:04:48;8.38;;;6.72;;
2177;SDS011;1095;50.992;6.798;2023-04-10T11:07:15;10.95;;;6.43;;
2177;SDS011;1095;50.992;6.798;2023-04-10T11:09:43;7.22;;;6.22;;
2177;SDS011;1095;50.992;6.798;2023-04-10T11:12:12;8.07;;;6.35;;
2177;SDS011;1095;50.992;6.798;2023-04-10T11:15:03;9.75;;;6.78;;
2177;SDS011;1095;50.992;6.798;2023-04-10T11:18:45;8.00;;;7.10;;
2177;SDS011;1095;50.992;6.798;2023-04-10T11:21:27;7.28;;;6.13;;
2177;SDS011;1095;50.992;6.798;2023-04-10T11:24:01;8.45;;;6.30;;
2177;SDS011;1095;50.992;6.798;2023-04-10T11:26:35;7.82;;;6.65;;
2177;SDS011;1095;50.992;6.798;2023-04-10T11:29:05;12.15;;;8.52;;
2177;SDS011;1095;50.992;6.798;2023-04-10T11:31:54;7.18;;;6.22;;
2177;SDS011;1095;50.992;6.798;2023-04-10T11:34:21;6.75;;;5.95;;
2177;SDS011;1095;50.992;6.798;2023-04-10T11:36:48;12.45;;;10.05;;
2177;SDS011;1095;50.992;6.798;2023-04-10T11:39:15;10.18;;;8.30;;
2177;SDS011;1095;50.992;6.798;2023-04-10T11:41:44;9.02;;;6.05;;
2177;SDS011;1095;50.992;6.798;2023-04-10T11:44:14;8.15;;;6.50;;
2177;SDS011;1095;50.992;6.798;2023-04-10T11:46:45;6.10;;;5.50;;
2177;SDS011;1095;50.992;6.798;2023-04-10T11:49:16;8.73;;;6.60;;
2177;SDS011;1095;50.992;6.798;2023-04-10T11:51:44;6.72;;;5.70;;
2177;SDS011;1095;50.992;6.798;2023-04-10T11:54:13;5.93;;;5.18;;
2177;SDS011;1095;50.992;6.798;2023-04-10T11:56:41;7.13;;;5.57;;
2177;SDS011;1095;50.992;6.798;2023-04-10T11:59:08;9.45;;;5.75;;
2177;SDS011;1095;50.992;6.798;2023-04-10T12:01:38;7.38;;;5.38;;
2177;SDS011;1095;50.992;6.798;2023-04-10T12:04:11;8.25;;;5.13;;
2177;SDS011;1095;50.992;6.798;2023-04-10T12:06:42;6.63;;;5.57;;
2177;SDS011;1095;50.992;6.798;2023-04-10T12:09:11;6.13;;;5.25;;
2177;SDS011;1095;50.992;6.798;2023-04-10T12:11:46;6.22;;;5.60;;
2177;SDS011;1095;50.992;6.798;2023-04-10T12:14:17;6.28;;;5.57;;
2177;SDS011;1095;50.992;6.798;2023-04-10T12:16:46;6.88;;;5.25;;
2177;SDS011;1095;50.992;6.798;2023-04-10T12:19:14;5.65;;;5.05;;
2177;SDS011;1095;50.992;6.798;2023-04-10T12:21:42;5.97;;;5.38;;
2177;SDS011;1095;50.992;6.798;2023-04-10T12:24:09;5.93;;;5.32;;
2177;SDS011;1095;50.992;6.798;2023-04-10T12:26:36;5.63;;;4.82;;
2177;SDS011;1095;50.992;6.798;2023-04-10T12:29:03;5.65;;;4.57;;
2177;SDS011;1095;50.992;6.798;2023-04-10T12:31:32;6.32;;;4.82;;
2177;SDS011;1095;50.992;6.798;2023-04-10T12:34:02;5.22;;;4.70;;
2177;SDS011;1095;50.992;6.798;2023-04-10T12:36:30;5.97;;;4.68;;
2177;SDS011;1095;50.992;6.798;2023-04-10T12:38:59;6.07;;;4.40;;
2177;SDS011;1095;50.992;6.798;2023-04-10T12:41:27;4.53;;;3.90;;
2177;SDS011;1095;50.992;6.798;2023-04-10T12:44:05;5.03;;;4.13;;
2177;SDS011;1095;50.992;6.798;2023-04-10T12:46:33;4.55;;;4.00;;
2177;SDS011;1095;50.992;6.798;2023-04-10T12:49:08;6.43;;;4.15;;
2177;SDS011;1095;50.992;6.798;2023-04-10T12:51:45;8.20;;;4.22;;
2177;SDS011;1095;50.992;6.798;2023-04-10T12:54:26;9.50;;;4.32;;
2177;SDS011;1095;50.992;6.798;2023-04-10T12:56:54;10.45;;;4.18;;
2177;SDS011;1095;50.992;6.798;2023-04-10T12:59:23;6.63;;;3.85;;
2177;SDS011;1095;50.992;6.798;2023-04-10T13:01:51;4.63;;;4.05;;
2177;SDS011;1095;50.992;6.798;2023-04-10T13:04:20;6.28;;;4.28;;
2177;SDS011;1095;50.992;6.798;2023-04-10T13:06:47;7.15;;;4.15;;
2177;SDS011;1095;50.992;6.798;2023-04-10T13:09:16;7.75;;;4.40;;
2177;SDS011;1095;50.992;6.798;2023-04-10T13:11:43;5.07;;;4.25;;
2177;SDS011;1095;50.992;6.798;2023-04-10T13:14:09;6.15;;;5.07;;
2177;SDS011;1095;50.992;6.798;2023-04-10T13:16:36;6.50;;;4.30;;
2177;SDS011;1095;50.992;6.798;2023-04-10T13:19:04;17.15;;;5.13;;
2177;SDS011;1095;50.992;6.798;2023-04-10T13:21:32;6.60;;;4.13;;
2177;SDS011;1095;50.992;6.798;2023-04-10T13:23:59;5.63;;;4.20;;
2177;SDS011;1095;50.992;6.798;2023-04-10T13:26:25;6.15;;;4.55;;
2177;SDS011;1095;50.992;6.798;2023-04-10T13:28:52;8.10;;;4.05;;
2177;SDS011;1095;50.992;6.798;2023-04-10T13:31:18;5.47;;;4.45;;
2177;SDS011;1095;50.992;6.798;2023-04-10T13:33:45;6.15;;;4.53;;
2177;SDS011;1095;50.992;6.798;2023-04-10T13:36:12;8.43;;;4.25;;
2177;SDS011;1095;50.992;6.798;2023-04-10T13:38:41;5.35;;;3.97;;
2177;SDS011;1095;50.992;6.798;2023-04-10T13:41:08;6.15;;;3.92;;
2177;SDS011;1095;50.992;6.798;2023-04-10T13:43:34;8.70;;;4.40;;
2177;SDS011;1095;50.992;6.798;2023-04-10T13:46:01;8.18;;;4.30;;
2177;SDS011;1095;50.992;6.798;2023-04-10T13:48:28;8.85;;;4.60;;
2177;SDS011;1095;50.992;6.798;2023-04-10T13:50:55;6.38;;;4.18;;
2177;SDS011;1095;50.992;6.798;2023-04-10T13:53:21;5.63;;;4.40;;
2177;SDS011;1095;50.992;6.798;2023-04-10T13:55:49;6.55;;;4.00;;
2177;SDS011;1095;50.992;6.798;2023-04-10T13:58:16;7.70;;;4.18;;
2177;SDS011;1095;50.992;6.798;2023-04-10T14:00:42;9.27;;;4.30;;
2177;SDS011;1095;50.992;6.798;2023-04-10T14:03:09;7.05;;;4.30;;
2177;SDS011;1095;50.992;6.798;2023-04-10T14:05:36;7.95;;;4.60;;
2177;SDS011;1095;50.992;6.798;2023-04-10T14:08:03;12.68;;;4.38;;
2177;SDS011;1095;50.992;6.798;2023-04-10T14:10:30;6.35;;;4.10;;
2177;SDS011;1095;50.992;6.798;2023-04-10T14:12:58;9.05;;;4.10;;
2177;SDS011;1095;50.992;6.798;2023-04-10T14:15:25;6.70;;;3.90;;
2177;SDS011;1095;50.992;6.798;2023-04-10T14:17:51;6.18;;;4.18;;
2177;SDS011;1095;50.992;6.798;2023-04-10T14:20:18;6.25;;;4.05;;
2177;SDS011;1095;50.992;6.798;2023-04-10T14:22:45;5.43;;;4.20;;
2177;SDS011;1095;50.992;6.798;2023-04-10T14:25:12;5.15;;;4.07;;
2177;SDS011;1095;50.992;6.798;2023-04-10T14:27:39;6.00;;;3.70;;
2177;SDS011;1095;50.992;6.798;2023-04-10T14:30:08;4.82;;;4.10;;
2177;SDS011;1095;50.992;6.798;2023-04-10T14:32:35;6.68;;;4.03;;
2177;SDS011;1095;50.992;6.798;2023-04-10T14:35:01;6.88;;;4.65;;
2177;SDS011;1095;50.992;6.798;2023-04-10T14:37:28;7.28;;;4.00;;
2177;SDS011;1095;50.992;6.798;2023-04-10T14:39:56;13.82;;;4.20;;
2177;SDS011;1095;50.992;6.798;2023-04-10T14:42:23;9.70;;;5.00;;
2177;SDS011;1095;50.992;6.798;2023-04-10T14:44:51;8.80;;;4.10;;
2177;SDS011;1095;50.992;6.798;2023-04-10T14:47:19;6.45;;;4.43;;
2177;SDS011;1095;50.992;6.798;2023-04-10T14:49:45;8.80;;;4.32;;
2177;SDS011;1095;50.992;6.798;2023-04-10T14:52:12;12.18;;;4.53;;
2177;SDS011;1095;50.992;6.798;2023-04-10T14:54:39;11.18;;;4.53;;
2177;SDS011;1095;50.992;6.798;2023-04-10T14:57:06;9.35;;;4.28;;
2177;SDS011;1095;50.992;6.798;2023-04-10T14:59:33;10.27;;;4.43;;
2177;SDS011;1095;50.992;6.798;2023-04-10T15:02:00;8.77;;;4.60;;
2177;SDS011;1095;50.992;6.798;2023-04-10T15:04:28;8.57;;;4.35;;
2177;SDS011;1095;50.992;6.798;2023-04-10T15:06:54;6.32;;;4.05;;
2177;SDS011;1095;50.992;6.798;2023-04-10T15:09:21;12.57;;;4.60;;
2177;SDS011;1095;50.992;6.798;2023-04-10T15:11:48;10.32;;;4.32;;